Time;durP1;ratioP1;P1;durP2;ratioP2;P2;SDS_P1;SDS_P2;PMS_P1;PMS_P2;Temp;Humidity;BMP_temperature;BMP_pressure;BME280_temperature;BME280_humidity;BME280_pressure;Samples;Min_cycle;Max_cycle;Signal;HPM_P1;HPM_P2
2023/07/07 00:02:23;;;;;;;317.20;304.30;;;11.70;99.90;;;;;;5095230;28;20944;-62
2023/07/07 00:04:52;;;;;;;360.27;344.93;;;11.60;99.90;;;;;;5095260;28;20460;-62
2023/07/07 00:07:19;;;;;;;335.03;321.13;;;11.60;99.90;;;;;;5095276;28;20838;-62
2023/07/07 00:09:46;;;;;;;322.53;309.30;;;11.60;99.90;;;;;;5094905;28;20456;-62
2023/07/07 00:12:13;;;;;;;341.60;327.33;;;11.60;99.90;;;;;;5094953;28;20448;-62
2023/07/07 00:14:40;;;;;;;341.00;326.63;;;11.60;99.90;;;;;;5095336;28;20792;-62
2023/07/07 00:17:06;;;;;;;326.63;313.13;;;11.60;99.90;;;;;;5094851;28;20451;-62
2023/07/07 00:19:34;;;;;;;307.90;295.57;;;11.50;99.90;;;;;;5094759;28;20467;-62
2023/07/07 00:22:02;;;;;;;403.93;386.23;;;11.50;99.90;;;;;;5094930;28;20795;-62
2023/07/07 00:24:30;;;;;;;339.87;325.70;;;11.50;99.90;;;;;;5094960;28;20456;-62
2023/07/07 00:26:57;;;;;;;363.83;348.13;;;11.50;99.90;;;;;;5094569;28;20463;-62
2023/07/07 00:29:24;;;;;;;335.60;321.73;;;11.50;99.90;;;;;;5095266;28;20841;-62
2023/07/07 00:31:50;;;;;;;316.50;303.57;;;11.40;99.90;;;;;;5095174;28;20458;-62
2023/07/07 00:34:17;;;;;;;322.17;308.40;;;11.30;99.90;;;;;;5095277;28;20543;-62
2023/07/07 00:36:44;;;;;;;347.13;332.43;;;11.30;99.90;;;;;;5094462;28;20452;-62
2023/07/07 00:39:12;;;;;;;330.83;316.77;;;11.40;99.90;;;;;;5094565;28;20492;-62
2023/07/07 00:41:40;;;;;;;340.93;326.53;;;11.30;99.90;;;;;;5094438;28;20448;-62
2023/07/07 00:44:09;;;;;;;369.87;353.57;;;11.20;99.90;;;;;;5094727;28;20458;-62
2023/07/07 00:46:36;;;;;;;390.23;373.13;;;11.30;99.90;;;;;;5094051;28;20464;-62
2023/07/07 00:49:07;;;;;;;412.33;394.03;;;11.20;99.90;;;;;;5094522;28;20463;-62
2023/07/07 00:51:37;;;;;;;429.50;410.20;;;11.10;99.90;;;;;;5094340;28;20450;-62
2023/07/07 00:54:08;;;;;;;404.87;386.73;;;11.10;99.90;;;;;;5094357;28;20502;-62
2023/07/07 00:56:39;;;;;;;406.83;388.80;;;11.10;99.90;;;;;;5094171;28;20812;-62
2023/07/07 00:59:11;;;;;;;370.83;354.63;;;11.10;99.90;;;;;;5094350;28;20459;-62
2023/07/07 01:01:39;;;;;;;376.77;359.90;;;11.10;99.90;;;;;;5094038;28;20979;-62
2023/07/07 01:04:10;;;;;;;361.30;345.77;;;11.10;99.90;;;;;;5094196;28;20456;-62
2023/07/07 01:06:42;;;;;;;316.07;303.20;;;11.10;99.90;;;;;;5093754;28;20461;-62
2023/07/07 01:09:09;;;;;;;326.03;312.83;;;11.20;99.90;;;;;;5094241;28;20456;-62
2023/07/07 01:11:38;;;;;;;322.27;309.47;;;11.10;99.90;;;;;;5093973;28;20445;-62
2023/07/07 01:14:10;;;;;;;328.70;315.17;;;11.00;99.90;;;;;;5093898;28;21077;-62
2023/07/07 01:16:43;;;;;;;320.30;307.70;;;11.00;99.90;;;;;;5093586;28;20456;-62
2023/07/07 01:19:29;;;;;;;331.63;318.53;;;10.90;99.90;;;;;;5093860;28;20453;-62
2023/07/07 01:22:16;;;;;;;329.27;316.27;;;10.90;99.90;;;;;;5093617;28;20451;-62
2023/07/07 01:24:59;;;;;;;323.97;311.07;;;10.90;99.90;;;;;;5093710;28;20927;-62
2023/07/07 01:27:53;;;;;;;317.43;304.83;;;10.90;99.90;;;;;;5093681;28;20476;-62
2023/07/07 01:30:40;;;;;;;358.37;343.27;;;10.90;99.90;;;;;;5093511;28;20449;-62
2023/07/07 01:33:11;;;;;;;386.20;369.47;;;11.10;99.90;;;;;;5092256;28;20467;-62
2023/07/07 01:35:38;;;;;;;356.17;340.80;;;11.10;99.90;;;;;;5093273;28;20453;-62
2023/07/07 01:38:06;;;;;;;347.53;332.70;;;11.10;99.90;;;;;;5093440;28;20459;-62
2023/07/07 01:40:41;;;;;;;342.40;328.20;;;11.10;99.90;;;;;;5093024;28;20503;-62
2023/07/07 01:43:13;;;;;;;328.07;314.57;;;11.10;99.90;;;;;;5093550;28;20460;-62
2023/07/07 01:45:47;;;;;;;294.90;283.07;;;11.10;99.90;;;;;;5092990;28;20892;-62
2023/07/07 01:48:21;;;;;;;276.40;265.80;;;11.10;99.90;;;;;;5093348;28;20599;-62
2023/07/07 01:50:50;;;;;;;269.60;259.33;;;11.10;99.90;;;;;;5092914;28;20452;-62
2023/07/07 01:53:21;;;;;;;254.20;244.80;;;11.10;99.90;;;;;;5093259;28;20478;-62
2023/07/07 01:55:50;;;;;;;278.70;268.20;;;11.10;99.90;;;;;;5092967;28;20823;-62
2023/07/07 01:58:20;;;;;;;260.50;250.70;;;11.00;99.90;;;;;;5093210;28;20452;-62
2023/07/07 02:00:51;;;;;;;258.30;248.33;;;10.90;99.90;;;;;;5092812;28;20482;-62
2023/07/07 02:03:18;;;;;;;332.03;318.90;;;10.80;99.90;;;;;;5093410;28;20781;-62
2023/07/07 02:05:46;;;;;;;299.27;287.73;;;10.80;99.90;;;;;;5092853;28;20852;-62
2023/07/07 02:08:13;;;;;;;277.47;267.10;;;10.70;99.90;;;;;;5093094;28;20834;-62
2023/07/07 02:10:40;;;;;;;276.87;266.70;;;10.60;99.90;;;;;;5092724;28;20626;-62
2023/07/07 02:13:07;;;;;;;305.27;292.60;;;10.60;99.90;;;;;;5092798;28;20821;-62
2023/07/07 02:15:35;;;;;;;360.97;345.80;;;10.60;99.90;;;;;;5092023;28;20955;-62
2023/07/07 02:18:03;;;;;;;414.80;395.73;;;10.60;99.90;;;;;;5092517;28;20459;-62
2023/07/07 02:20:30;;;;;;;399.77;381.83;;;10.70;99.90;;;;;;5092702;28;20480;-62
2023/07/07 02:22:57;;;;;;;393.80;375.73;;;10.70;99.90;;;;;;5092808;28;20459;-62
2023/07/07 02:25:24;;;;;;;362.87;346.17;;;10.70;99.90;;;;;;5092267;28;20459;-62
2023/07/07 02:27:51;;;;;;;319.57;306.00;;;10.70;99.90;;;;;;5092861;28;20466;-62
2023/07/07 02:30:18;;;;;;;297.23;285.23;;;10.70;99.90;;;;;;5092354;28;20475;-62
2023/07/07 02:32:44;;;;;;;309.03;296.90;;;10.60;99.90;;;;;;5092659;28;20935;-62
2023/07/07 02:35:14;;;;;;;343.17;329.30;;;10.50;99.90;;;;;;5092247;28;20816;-62
2023/07/07 02:37:40;;;;;;;333.50;318.80;;;10.50;99.90;;;;;;5092652;28;20883;-62
2023/07/07 02:40:09;;;;;;;432.37;412.27;;;10.40;99.90;;;;;;5092350;28;20474;-62
2023/07/07 02:42:36;;;;;;;507.97;482.20;;;10.40;99.90;;;;;;5092534;28;20996;-62
2023/07/07 02:45:03;;;;;;;503.73;478.20;;;10.40;99.90;;;;;;5091692;28;20938;-62
2023/07/07 02:47:30;;;;;;;498.27;472.50;;;10.40;99.90;;;;;;5092592;28;20455;-62
2023/07/07 02:49:57;;;;;;;526.73;499.00;;;10.40;99.90;;;;;;5092108;28;20487;-62
2023/07/07 02:52:26;;;;;;;560.07;530.13;;;10.40;99.90;;;;;;5092403;28;20458;-62
2023/07/07 02:54:53;;;;;;;565.73;535.70;;;10.40;99.90;;;;;;5091742;28;20542;-62
2023/07/07 02:57:20;;;;;;;512.00;485.80;;;10.30;99.90;;;;;;5092273;28;20543;-62
2023/07/07 02:59:47;;;;;;;497.57;472.33;;;10.20;99.90;;;;;;5092223;28;20451;-62
2023/07/07 03:02:14;;;;;;;563.60;533.50;;;10.20;99.90;;;;;;5092368;28;20845;-62
2023/07/07 03:04:41;;;;;;;619.43;586.53;;;10.20;99.90;;;;;;5092439;28;20458;-62
2023/07/07 03:07:08;;;;;;;545.77;516.87;;;10.30;99.90;;;;;;5091807;28;20455;-62
2023/07/07 03:09:36;;;;;;;527.63;500.43;;;10.20;99.90;;;;;;5092660;28;20963;-62
2023/07/07 03:12:03;;;;;;;493.00;468.23;;;10.20;99.90;;;;;;5091968;28;20536;-62
2023/07/07 03:14:30;;;;;;;464.57;442.43;;;10.20;99.90;;;;;;5091963;28;20934;-62
2023/07/07 03:16:57;;;;;;;624.57;589.57;;;10.20;99.90;;;;;;5091831;28;20817;-62
2023/07/07 03:19:24;;;;;;;687.23;646.87;;;10.10;99.90;;;;;;5092093;28;20456;-62
2023/07/07 03:21:54;;;;;;;677.73;639.33;;;10.10;99.90;;;;;;5091729;28;20476;-62
2023/07/07 03:24:21;;;;;;;692.13;653.03;;;10.00;99.90;;;;;;5091776;28;20463;-62
2023/07/07 03:26:49;;;;;;;694.13;655.23;;;10.10;99.90;;;;;;5091897;28;20450;-62
2023/07/07 03:29:16;;;;;;;628.13;593.43;;;10.10;99.90;;;;;;5094877;28;20483;-62
2023/07/07 03:31:43;;;;;;;609.37;575.97;;;10.10;99.90;;;;;;5095777;28;20457;-62
2023/07/07 03:34:10;;;;;;;614.77;580.87;;;10.10;99.90;;;;;;5095618;28;20460;-62
2023/07/07 03:36:39;;;;;;;657.97;620.80;;;10.10;99.90;;;;;;5095715;28;20455;-62
2023/07/07 03:39:06;;;;;;;673.60;635.50;;;10.10;99.90;;;;;;5095551;28;20491;-62
2023/07/07 03:41:33;;;;;;;633.90;598.40;;;10.20;99.90;;;;;;5095652;28;20482;-62
2023/07/07 03:44:01;;;;;;;550.37;521.37;;;10.30;99.90;;;;;;5095717;28;20806;-62
2023/07/07 03:46:29;;;;;;;486.03;462.77;;;10.30;99.90;;;;;;5095003;28;20562;-62
2023/07/07 03:48:56;;;;;;;482.57;459.20;;;10.20;99.90;;;;;;5095797;28;20614;-62
2023/07/07 03:51:26;;;;;;;569.30;539.73;;;10.10;99.90;;;;;;5095849;28;20454;-62
2023/07/07 03:53:53;;;;;;;618.20;583.83;;;10.10;99.90;;;;;;5095216;28;20462;-62
2023/07/07 03:56:20;;;;;;;620.03;587.17;;;10.10;99.90;;;;;;5094959;28;20455;-62
2023/07/07 03:58:47;;;;;;;636.20;600.83;;;10.20;99.90;;;;;;5095313;28;20450;-62
2023/07/07 04:01:16;;;;;;;631.07;595.40;;;10.20;99.90;;;;;;5095121;28;20474;-62
2023/07/07 04:03:45;;;;;;;577.53;546.03;;;10.20;99.90;;;;;;5095386;28;20463;-62
2023/07/07 04:06:12;;;;;;;509.97;483.43;;;10.20;99.90;;;;;;5094853;28;20451;-62
2023/07/07 04:08:38;;;;;;;473.80;450.07;;;10.20;99.90;;;;;;5095314;28;20478;-62
2023/07/07 04:11:08;;;;;;;474.03;450.83;;;10.30;99.90;;;;;;5094909;28;20482;-62
2023/07/07 04:13:36;;;;;;;460.90;437.73;;;10.20;99.90;;;;;;5094987;28;20459;-62
2023/07/07 04:16:06;;;;;;;452.90;430.60;;;10.30;99.90;;;;;;5094617;28;20448;-63
2023/07/07 04:18:35;;;;;;;448.70;426.80;;;10.30;99.90;;;;;;5094941;28;20474;-63
2023/07/07 04:21:05;;;;;;;471.33;446.93;;;10.30;99.90;;;;;;5094863;28;20481;-63
2023/07/07 04:23:32;;;;;;;463.47;438.67;;;10.30;99.90;;;;;;5095065;28;20966;-63
2023/07/07 04:25:59;;;;;;;451.57;426.67;;;10.40;99.90;;;;;;5094554;28;20459;-62
2023/07/07 04:28:26;;;;;;;479.93;454.40;;;10.40;99.90;;;;;;5094515;28;20458;-62
2023/07/07 04:30:53;;;;;;;485.53;459.43;;;10.50;99.90;;;;;;5094972;28;20447;-62
2023/07/07 04:33:20;;;;;;;517.87;488.20;;;10.50;99.90;;;;;;5094605;28;20460;-62
2023/07/07 04:35:54;;;;;;;587.70;552.63;;;10.60;99.90;;;;;;5094336;28;20818;-62
2023/07/07 04:38:21;;;;;;;605.00;568.83;;;10.80;99.90;;;;;;5094716;28;20874;-62
2023/07/07 04:40:48;;;;;;;582.13;547.90;;;10.90;99.90;;;;;;5093988;28;20930;-62
2023/07/07 04:43:15;;;;;;;540.73;509.93;;;11.10;99.90;;;;;;5094605;28;20939;-62
2023/07/07 04:45:41;;;;;;;522.43;493.27;;;11.20;99.90;;;;;;5093858;28;20459;-62
2023/07/07 04:48:08;;;;;;;503.27;475.70;;;11.40;99.90;;;;;;5094666;28;20845;-62
2023/07/07 04:50:35;;;;;;;463.73;438.07;;;11.50;99.90;;;;;;5094325;28;20487;-62
2023/07/07 04:53:03;;;;;;;456.60;431.10;;;11.60;99.90;;;;;;5094485;28;20479;-62
2023/07/07 04:55:30;;;;;;;461.37;436.30;;;11.70;99.90;;;;;;5093932;28;20457;-62
2023/07/07 04:57:57;;;;;;;471.60;444.00;;;11.80;99.90;;;;;;5094114;28;20462;-62
2023/07/07 05:00:23;;;;;;;479.40;451.03;;;11.90;99.90;;;;;;5093978;28;20461;-62
2023/07/07 05:02:50;;;;;;;499.43;469.13;;;12.10;99.90;;;;;;5094147;28;20488;-62
2023/07/07 05:05:17;;;;;;;494.13;463.57;;;12.20;99.90;;;;;;5093632;28;20458;-62
2023/07/07 05:07:44;;;;;;;496.30;465.90;;;12.40;99.90;;;;;;5094194;28;20457;-65
2023/07/07 05:10:12;;;;;;;502.80;471.37;;;12.50;99.90;;;;;;5092569;28;20456;-64
2023/07/07 05:12:39;;;;;;;505.00;473.43;;;12.70;99.90;;;;;;5093801;28;20968;-65
2023/07/07 05:15:07;;;;;;;489.17;458.67;;;12.80;99.90;;;;;;5093133;28;20945;-65
2023/07/07 05:17:33;;;;;;;470.20;441.20;;;13.00;99.90;;;;;;5093758;28;20454;-65
2023/07/07 05:20:00;;;;;;;456.07;428.93;;;13.20;99.90;;;;;;5092892;28;20450;-65
2023/07/07 05:22:27;;;;;;;470.73;443.73;;;13.30;99.90;;;;;;5093681;28;20487;-65
2023/07/07 05:24:54;;;;;;;452.33;427.03;;;13.60;99.90;;;;;;5092793;28;20461;-65
2023/07/07 05:27:22;;;;;;;224.27;213.97;;;14.20;99.90;;;;;;5093587;28;20453;-66
2023/07/07 05:29:50;;;;;;;31.10;29.27;;;15.00;99.90;;;;;;5093618;28;20523;-65
2023/07/07 05:32:17;;;;;;;7.77;4.27;;;15.80;99.90;;;;;;5093706;28;20938;-65
2023/07/07 05:34:44;;;;;;;9.33;3.60;;;16.40;98.60;;;;;;5093457;28;20450;-65
2023/07/07 05:37:11;;;;;;;10.47;4.10;;;17.00;93.90;;;;;;5093073;28;20457;-66
2023/07/07 05:39:37;;;;;;;5.90;2.87;;;17.40;90.50;;;;;;5093166;28;20945;-65
2023/07/07 05:42:05;;;;;;;6.40;3.53;;;17.70;89.10;;;;;;5092731;28;20480;-66
2023/07/07 05:44:33;;;;;;;6.33;2.90;;;18.30;84.60;;;;;;5093350;28;20446;-66
2023/07/07 05:47:00;;;;;;;8.13;2.83;;;18.60;81.40;;;;;;5092567;28;20941;-66
2023/07/07 05:49:27;;;;;;;7.93;3.53;;;18.90;73.90;;;;;;5092493;28;20545;-66
2023/07/07 05:51:53;;;;;;;10.90;3.20;;;19.30;71.50;;;;;;5091965;28;20446;-66
2023/07/07 05:54:21;;;;;;;7.90;2.60;;;19.50;68.30;;;;;;5092298;28;20456;-66
2023/07/07 05:56:48;;;;;;;8.30;2.97;;;20.10;65.90;;;;;;5092861;28;20457;-66
2023/07/07 05:59:14;;;;;;;6.37;2.60;;;20.20;62.00;;;;;;5092291;28;20472;-66
2023/07/07 06:01:43;;;;;;;7.83;3.33;;;20.40;62.20;;;;;;5090797;28;20965;-66
2023/07/07 06:04:10;;;;;;;9.27;3.43;;;20.50;58.00;;;;;;5091908;28;20477;-66
2023/07/07 06:06:39;;;;;;;10.10;3.03;;;20.80;55.90;;;;;;5091438;28;20450;-66
2023/07/07 06:09:06;;;;;;;7.93;2.53;;;21.10;54.30;;;;;;5091392;28;20493;-66
2023/07/07 06:11:33;;;;;;;7.60;2.90;;;21.40;54.50;;;;;;5091049;28;20814;-66
2023/07/07 06:14:00;;;;;;;5.80;2.50;;;21.70;50.10;;;;;;5091383;28;20807;-66
2023/07/07 06:16:26;;;;;;;9.23;2.30;;;21.70;45.90;;;;;;5091504;28;20450;-66
2023/07/07 06:18:54;;;;;;;8.10;3.00;;;21.80;46.00;;;;;;5091643;28;20450;-66
2023/07/07 06:21:21;;;;;;;8.33;2.67;;;21.90;45.60;;;;;;5091140;28;20474;-67
2023/07/07 06:23:48;;;;;;;6.07;2.60;;;22.20;42.90;;;;;;5091100;28;20456;-66
2023/07/07 06:26:15;;;;;;;7.13;3.07;;;22.30;44.30;;;;;;5091134;28;20458;-66
2023/07/07 06:28:41;;;;;;;10.43;3.00;;;22.30;39.40;;;;;;5091388;28;20455;-66
2023/07/07 06:31:08;;;;;;;9.00;3.60;;;22.60;41.60;;;;;;5091767;28;20454;-66
2023/07/07 06:33:35;;;;;;;7.63;2.93;;;22.60;37.80;;;;;;5091628;28;20456;-66
2023/07/07 06:36:03;;;;;;;6.67;2.90;;;22.80;37.90;;;;;;5090901;28;20450;-66
2023/07/07 06:38:30;;;;;;;8.30;3.23;;;22.90;37.10;;;;;;5091313;28;20802;-67
2023/07/07 06:40:57;;;;;;;5.90;2.67;;;22.90;35.80;;;;;;5091146;28;20812;-66
2023/07/07 06:43:24;;;;;;;9.67;3.37;;;23.20;35.20;;;;;;5091757;28;20473;-67
2023/07/07 06:45:54;;;;;;;5.70;2.47;;;23.20;33.60;;;;;;5091293;28;20469;-66
2023/07/07 06:48:21;;;;;;;6.63;3.10;;;23.40;38.40;;;;;;5091787;28;20458;-67
2023/07/07 06:50:48;;;;;;;7.20;2.23;;;23.70;34.80;;;;;;5091477;28;20457;-66
2023/07/07 06:53:17;;;;;;;6.80;2.70;;;24.00;29.90;;;;;;5091417;28;20471;-65
2023/07/07 06:55:44;;;;;;;6.17;2.47;;;24.00;29.90;;;;;;5091316;28;20651;-63
2023/07/07 06:58:12;;;;;;;6.27;2.57;;;23.70;27.20;;;;;;5092095;28;20961;-63
2023/07/07 07:00:39;;;;;;;7.80;3.00;;;24.00;27.10;;;;;;5092121;28;20519;-63
2023/07/07 07:03:06;;;;;;;6.20;2.10;;;24.10;26.20;;;;;;5094641;28;20459;-63
2023/07/07 07:05:32;;;;;;;5.73;2.50;;;24.10;22.70;;;;;;5095299;28;20452;-63
2023/07/07 07:07:59;;;;;;;7.80;2.70;;;24.40;22.90;;;;;;5095996;28;20464;-63
2023/07/07 07:10:27;;;;;;;7.80;2.50;;;24.70;23.10;;;;;;5095946;28;20445;-63
2023/07/07 07:12:54;;;;;;;6.47;2.47;;;24.70;21.40;;;;;;5096134;28;20450;-63
2023/07/07 07:15:21;;;;;;;5.90;2.40;;;24.70;21.00;;;;;;5095828;28;20460;-63
2023/07/07 07:17:48;;;;;;;5.03;2.10;;;24.90;18.50;;;;;;5096577;28;20435;-63
2023/07/07 07:20:17;;;;;;;8.13;2.60;;;24.80;15.60;;;;;;5096024;28;20953;-63
2023/07/07 07:22:44;;;;;;;9.10;2.70;;;24.80;17.90;;;;;;5096065;28;21091;-63
2023/07/07 07:25:11;;;;;;;6.37;2.70;;;24.50;18.70;;;;;;5095578;28;20457;-63
2023/07/07 07:27:39;;;;;;;5.77;2.50;;;24.60;19.30;;;;;;5096067;28;20830;-63
2023/07/07 07:30:08;;;;;;;5.40;2.40;;;24.90;15.70;;;;;;5095277;28;20454;-63
2023/07/07 07:32:35;;;;;;;6.40;1.90;;;24.90;15.70;;;;;;5094800;28;20449;-63
2023/07/07 07:35:02;;;;;;;8.33;2.60;;;25.00;15.80;;;;;;5095225;28;20453;-63
2023/07/07 07:37:28;;;;;;;6.07;1.90;;;25.40;13.70;;;;;;5096040;28;20455;-63
2023/07/07 07:39:55;;;;;;;6.43;2.37;;;25.60;10.60;;;;;;5095882;28;20466;-63
2023/07/07 07:42:22;;;;;;;5.70;2.10;;;25.70;13.70;;;;;;5095643;28;20474;-63
2023/07/07 07:44:50;;;;;;;8.80;2.10;;;25.70;11.70;;;;;;5095693;28;20457;-63
2023/07/07 07:47:19;;;;;;;7.90;1.87;;;25.80;8.60;;;;;;5095234;28;20449;-63
2023/07/07 07:49:46;;;;;;;6.63;2.33;;;25.80;11.10;;;;;;5095746;28;20455;-63
2023/07/07 07:52:13;;;;;;;7.57;2.20;;;26.10;7.30;;;;;;5095718;28;20441;-63
2023/07/07 07:54:40;;;;;;;7.37;2.10;;;25.90;6.00;;;;;;5095632;28;20449;-63
2023/07/07 07:57:07;;;;;;;5.97;2.00;;;25.80;2.80;;;;;;5095258;28;20450;-63
2023/07/07 07:59:34;;;;;;;7.27;1.90;;;25.80;2.70;;;;;;5095492;28;21115;-63
2023/07/07 08:02:03;;;;;;;6.70;1.70;;;26.00;2.20;;;;;;5095334;28;20517;-63
2023/07/07 08:04:29;;;;;;;6.63;2.17;;;26.10;3.90;;;;;;5094915;28;20445;-63
2023/07/07 08:06:56;;;;;;;4.83;1.87;;;26.40;1.00;;;;;;5094452;28;20934;-63
2023/07/07 08:09:23;;;;;;;5.73;1.90;;;26.60;3.00;;;;;;5094997;28;20454;-63
2023/07/07 08:11:57;;;;;;;6.10;1.90;;;26.60;1.90;;;;;;5095061;28;20937;-63
2023/07/07 08:14:30;;;;;;;6.68;2.20;;;26.90;1.30;;;;;;5094420;28;20812;-63
2023/07/07 08:16:57;;;;;;;6.80;1.97;;;27.00;1.00;;;;;;5096609;28;20271;-65
2023/07/07 08:19:26;;;;;;;5.73;2.17;;;27.30;1.00;;;;;;5096806;28;20462;-66
2023/07/07 08:21:53;;;;;;;6.43;2.10;;;27.30;1.00;;;;;;5094798;28;21235;-65
2023/07/07 08:24:19;;;;;;;5.50;2.17;;;27.50;1.00;;;;;;5095152;28;20962;-65
2023/07/07 08:26:49;;;;;;;6.50;2.10;;;27.60;1.00;;;;;;5096421;28;20776;-65
2023/07/07 08:29:16;;;;;;;6.97;2.67;;;27.70;1.00;;;;;;5096375;28;20460;-65
2023/07/07 08:31:42;;;;;;;6.83;2.20;;;28.00;1.00;;;;;;5095212;28;20785;-65
2023/07/07 08:34:09;;;;;;;8.40;2.07;;;28.10;1.00;;;;;;5095255;28;20944;-66
2023/07/07 08:36:37;;;;;;;6.13;2.37;;;28.10;1.00;;;;;;5095908;28;20457;-66
2023/07/07 08:39:11;;;;;;;6.00;1.93;;;28.10;1.00;;;;;;5095927;28;20450;-66
2023/07/07 08:41:43;;;;;;;5.43;2.17;;;28.30;1.00;;;;;;5095445;28;20911;-65
2023/07/07 08:44:15;;;;;;;5.77;1.77;;;28.60;1.00;;;;;;5095560;28;20431;-65
2023/07/07 08:46:59;;;;;;;7.50;2.27;;;28.90;1.00;;;;;;5095841;28;20465;-66
2023/07/07 08:49:31;;;;;;;6.40;1.80;;;28.40;1.00;;;;;;5096090;28;20445;-66
2023/07/07 08:52:06;;;;;;;5.63;2.13;;;27.60;1.00;;;;;;5094252;28;20465;-65
2023/07/07 08:54:39;;;;;;;5.90;1.87;;;27.90;1.00;;;;;;5095268;28;20495;-66
2023/07/07 08:57:12;;;;;;;7.13;2.23;;;28.60;1.00;;;;;;5095881;28;20427;-66
2023/07/07 08:59:50;;;;;;;8.50;3.13;;;29.00;1.00;;;;;;5096042;28;20445;-66
2023/07/07 09:02:32;;;;;;;9.13;1.60;;;29.10;1.00;;;;;;5093879;28;20460;-66
2023/07/07 09:05:06;;;;;;;8.55;1.90;;;29.30;1.00;;;;;;5095126;28;20435;-66
2023/07/07 09:08:00;;;;;;;6.37;1.83;;;29.30;1.00;;;;;;5095688;28;20183;-66
2023/07/07 09:10:45;;;;;;;8.07;2.40;;;29.20;1.00;;;;;;5095533;28;20429;-66
2023/07/07 09:13:21;;;;;;;6.37;1.80;;;29.70;1.00;;;;;;5094263;28;20449;-67
2023/07/07 09:16:00;;;;;;;5.57;1.67;;;30.10;1.00;;;;;;5095333;28;20442;-70
2023/07/07 09:18:32;;;;;;;6.40;2.07;;;30.00;1.00;;;;;;5095455;28;20445;-68
2023/07/07 09:21:03;;;;;;;6.00;1.97;;;30.00;1.00;;;;;;5094889;28;20409;-67
2023/07/07 09:23:34;;;;;;;5.77;1.80;;;30.30;1.00;;;;;;5094681;28;20556;-67
2023/07/07 09:26:07;;;;;;;5.40;1.97;;;30.40;1.00;;;;;;5094457;28;20416;-67
2023/07/07 09:28:50;;;;;;;6.17;2.10;;;31.00;1.00;;;;;;5095364;28;20442;-67
2023/07/07 09:31:27;;;;;;;6.83;2.43;;;30.70;1.00;;;;;;5094527;28;20892;-68
2023/07/07 09:33:56;;;;;;;5.60;2.00;;;30.20;1.00;;;;;;5094602;28;20434;-68
2023/07/07 09:36:28;;;;;;;5.00;1.77;;;29.60;1.00;;;;;;5095090;28;20432;-67
2023/07/07 09:39:07;;;;;;;8.83;2.27;;;30.60;1.00;;;;;;5094908;28;20435;-67
2023/07/07 09:41:45;;;;;;;7.97;3.00;;;31.10;1.00;;;;;;5093943;28;20958;-67
2023/07/07 09:44:28;;;;;;;4.53;1.80;;;31.40;1.00;;;;;;5094376;28;20468;-67
2023/07/07 09:47:06;;;;;;;5.20;1.80;;;31.80;1.00;;;;;;5094578;28;20440;-67
2023/07/07 10:39:16;;;;;;;5.70;2.30;;;31.60;1.00;;;;;;5132214;27;20884;-69
2023/07/07 10:41:43;;;;;;;5.60;2.50;;;33.30;1.00;;;;;;5131993;28;20455;-69
2023/07/07 10:44:10;;;;;;;8.13;2.50;;;33.70;1.00;;;;;;5130473;28;20456;-69
2023/07/07 10:46:36;;;;;;;13.50;3.47;;;33.50;1.00;;;;;;5128344;28;20464;-73
2023/07/07 10:49:04;;;;;;;7.55;2.53;;;33.70;1.00;;;;;;5128414;28;20777;-73
2023/07/07 10:51:38;;;;;;;5.63;2.60;;;34.00;1.00;;;;;;5128212;27;20587;-73
2023/07/07 10:54:13;;;;;;;6.80;2.40;;;34.00;1.00;;;;;;5128064;28;20459;-70
2023/07/07 10:56:45;;;;;;;5.70;2.20;;;33.70;1.00;;;;;;5127709;27;20454;-69
2023/07/07 10:59:38;;;;;;;6.20;2.30;;;34.20;1.00;;;;;;5128634;28;20427;-69
2023/07/07 11:02:21;;;;;;;6.03;2.03;;;34.10;1.00;;;;;;5128730;27;20476;-69
2023/07/07 11:05:05;;;;;;;6.50;2.33;;;34.50;1.00;;;;;;5128191;28;20820;-69
2023/07/07 11:07:42;;;;;;;6.57;2.83;;;34.00;1.00;;;;;;5127297;27;20462;-69
2023/07/07 11:10:26;;;;;;;5.80;2.50;;;34.90;1.00;;;;;;5127210;28;20784;-69
2023/07/07 11:13:07;;;;;;;6.67;2.23;;;34.70;1.00;;;;;;5127900;28;20430;-69
2023/07/07 11:15:41;;;;;;;7.03;2.50;;;35.00;1.00;;;;;;5128085;28;20434;-70
2023/07/07 11:18:37;;;;;;;6.10;2.83;;;34.10;1.00;;;;;;5128624;28;20419;-70
2023/07/07 11:21:19;;;;;;;5.47;2.43;;;35.30;1.00;;;;;;5128030;28;20427;-70
2023/07/07 11:24:11;;;;;;;8.03;2.27;;;35.60;1.00;;;;;;5128309;28;20430;-70
2023/07/07 11:26:48;;;;;;;8.27;2.60;;;34.90;1.00;;;;;;5126718;28;20452;-71
2023/07/07 11:29:25;;;;;;;9.23;3.00;;;33.80;1.00;;;;;;5128395;28;20440;-70
2023/07/07 11:32:10;;;;;;;5.60;2.40;;;34.30;1.00;;;;;;5128096;28;20448;-70
2023/07/07 11:35:04;;;;;;;5.70;2.30;;;35.10;1.00;;;;;;5128319;28;20852;-70
2023/07/07 11:37:43;;;;;;;5.63;2.57;;;36.00;1.00;;;;;;5127750;28;20456;-69
2023/07/07 11:40:28;;;;;;;5.70;2.77;;;35.70;1.00;;;;;;5113971;28;20774;-70
2023/07/07 11:43:21;;;;;;;6.40;2.57;;;36.40;1.00;;;;;;5114179;28;20423;-70
2023/07/07 11:46:11;;;;;;;6.47;2.30;;;36.00;1.00;;;;;;5113866;28;20423;-69
2023/07/07 11:48:51;;;;;;;7.30;2.77;;;35.70;1.00;;;;;;5113698;28;20505;-70
2023/07/07 11:51:27;;;;;;;7.30;2.50;;;35.70;1.00;;;;;;5114016;28;20458;-70
2023/07/07 11:54:10;;;;;;;7.30;2.80;;;35.80;1.00;;;;;;5114006;28;20963;-71
2023/07/07 11:56:57;;;;;;;5.67;2.43;;;35.80;1.00;;;;;;5113242;28;20434;-70
2023/07/07 11:59:42;;;;;;;5.40;2.57;;;36.20;1.00;;;;;;5113675;28;20424;-70
2023/07/07 12:02:18;;;;;;;6.40;2.80;;;36.20;1.00;;;;;;5114280;28;20468;-70
2023/07/07 12:04:45;;;;;;;5.33;2.30;;;36.40;1.00;;;;;;5114423;28;20478;-69
2023/07/07 12:07:17;;;;;;;5.97;2.30;;;37.00;1.00;;;;;;5113863;28;20449;-70
2023/07/07 12:09:51;;;;;;;8.43;2.13;;;37.50;1.00;;;;;;5114109;28;20431;-70
2023/07/07 12:12:23;;;;;;;4.70;1.87;;;36.90;1.00;;;;;;5114514;28;20428;-70
2023/07/07 12:14:54;;;;;;;5.33;2.40;;;36.80;1.00;;;;;;5113995;28;20456;-67
2023/07/07 12:17:26;;;;;;;9.80;2.80;;;36.30;1.00;;;;;;5113907;28;20581;-65
2023/07/07 12:19:56;;;;;;;7.30;2.90;;;36.10;1.00;;;;;;5114026;28;20447;-65
2023/07/07 12:22:29;;;;;;;7.63;2.50;;;36.50;1.00;;;;;;5113619;28;20481;-65
2023/07/07 12:25:01;;;;;;;6.80;2.90;;;36.60;1.00;;;;;;5113790;28;20453;-65
2023/07/07 12:27:35;;;;;;;7.87;2.67;;;36.30;1.00;;;;;;5114051;28;20448;-65
2023/07/07 12:30:04;;;;;;;7.13;2.90;;;36.70;1.00;;;;;;5113911;28;20840;-65
2023/07/07 12:32:32;;;;;;;9.13;2.87;;;36.70;1.00;;;;;;5113660;28;20423;-65
2023/07/07 12:35:07;;;;;;;5.80;2.40;;;37.20;1.00;;;;;;5113378;28;20423;-65
2023/07/07 12:37:35;;;;;;;5.30;2.10;;;37.40;1.00;;;;;;5113314;28;20490;-66
2023/07/07 12:40:15;;;;;;;6.43;2.50;;;37.30;1.00;;;;;;5113500;28;20939;-66
2023/07/07 12:42:44;;;;;;;4.90;1.90;;;37.40;1.00;;;;;;5113573;28;20893;-66
2023/07/07 12:45:19;;;;;;;5.70;2.20;;;38.10;1.00;;;;;;5112958;28;20826;-66
2023/07/07 12:47:55;;;;;;;5.50;1.97;;;38.00;1.00;;;;;;5113450;28;20491;-65
2023/07/07 12:50:28;;;;;;;8.27;2.93;;;38.60;1.00;;;;;;5111443;28;20460;-65
2023/07/07 12:53:03;;;;;;;5.20;2.20;;;37.50;1.00;;;;;;5112760;28;20435;-65
2023/07/07 12:55:31;;;;;;;6.90;2.70;;;37.20;1.00;;;;;;5112731;28;20468;-65
2023/07/07 12:58:29;;;;;;;6.30;2.40;;;37.60;1.00;;;;;;5113306;28;20453;-65
2023/07/07 13:01:06;;;;;;;5.93;2.60;;;38.50;1.00;;;;;;5112984;28;20432;-66
2023/07/07 13:03:42;;;;;;;6.50;2.90;;;38.30;1.00;;;;;;5112468;28;20427;-67
2023/07/07 13:06:23;;;;;;;8.00;3.13;;;38.10;1.00;;;;;;5111922;28;20964;-67
2023/07/07 13:09:20;;;;;;;9.33;2.47;;;37.40;1.00;;;;;;5112311;28;20431;-67
2023/07/07 13:11:49;;;;;;;8.70;2.90;;;35.40;1.00;;;;;;5112714;28;20427;-67
2023/07/07 13:14:34;;;;;;;6.20;2.77;;;35.90;1.00;;;;;;5109125;28;20431;-67
2023/07/07 13:17:04;;;;;;;6.00;2.43;;;36.70;1.00;;;;;;5111124;28;20427;-67
2023/07/07 13:19:33;;;;;;;5.23;2.33;;;37.80;1.00;;;;;;5111440;28;20493;-67
2023/07/07 13:22:06;;;;;;;5.40;2.27;;;38.70;1.00;;;;;;5111880;28;20420;-66
2023/07/07 13:24:40;;;;;;;7.90;2.27;;;38.90;1.00;;;;;;5111584;28;20839;-66
2023/07/07 13:27:13;;;;;;;6.83;3.03;;;40.20;1.00;;;;;;5111533;28;20434;-68
2023/07/07 13:29:41;;;;;;;7.30;2.97;;;39.80;1.00;;;;;;5111084;28;20761;-68
2023/07/07 13:32:21;;;;;;;8.20;2.67;;;39.80;1.00;;;;;;5110932;28;20426;-68
2023/07/07 13:34:50;;;;;;;7.60;2.43;;;39.40;1.00;;;;;;5111208;28;20429;-68
2023/07/07 13:37:17;;;;;;;5.90;2.47;;;39.70;1.00;;;;;;5110478;28;20450;-68
2023/07/07 13:39:44;;;;;;;6.77;2.37;;;39.70;1.00;;;;;;5111125;28;20453;-68
2023/07/07 13:42:24;;;;;;;6.27;2.77;;;39.00;1.00;;;;;;5111800;28;20459;-67